Time;durP1;ratioP1;P1;durP2;ratioP2;P2;SDS_P1;SDS_P2;PMS_P1;PMS_P2;Temp;Humidity;BMP_temperature;BMP_pressure;BME280_temperature;BME280_humidity;BME280_pressure;Samples;Min_cycle;Max_cycle;Signal;HPM_P1;HPM_P2
2023/02/24 00:00:51;;;;;;;45.40;35.53;;;;;20.70;100360.00;;;;2064425;28;20230;-81
2023/02/24 00:02:03;;;;;;;42.55;34.42;;;;;20.70;100352.00;;;;2064126;28;20989;-79
2023/02/24 00:03:05;;;;;;;39.25;30.38;;;;;20.70;100348.00;;;;2064290;28;20223;-80
2023/02/24 00:04:10;;;;;;;37.80;30.23;;;;;20.70;100348.00;;;;2064343;28;20210;-81
2023/02/24 00:05:10;;;;;;;35.50;30.48;;;;;20.70;100347.00;;;;2064342;28;20306;-79
2023/02/24 00:06:11;;;;;;;41.17;30.50;;;;;20.70;100345.00;;;;2063860;28;20579;-81
2023/02/24 00:07:15;;;;;;;37.60;29.17;;;;;20.70;100341.00;;;;2063521;28;20657;-80
2023/02/24 00:08:16;;;;;;;35.20;28.90;;;;;20.70;100333.00;;;;2063398;28;20225;-80
2023/02/24 00:09:24;;;;;;;37.43;29.10;;;;;20.70;100342.00;;;;2064322;28;20237;-81
2023/02/24 00:10:25;;;;;;;32.85;24.85;;;;;20.70;100340.00;;;;2056290;28;20942;-81
2023/02/24 00:11:26;;;;;;;29.33;26.13;;;;;20.70;100336.00;;;;2056296;28;20211;-81
2023/02/24 00:12:27;;;;;;;35.95;27.83;;;;;20.70;100335.00;;;;2054789;28;20582;-80
2023/02/24 00:13:28;;;;;;;35.47;27.10;;;;;20.70;100332.00;;;;2056189;28;20231;-80
2023/02/24 00:14:39;;;;;;;32.58;24.92;;;;;20.70;100325.00;;;;2055555;28;20305;-80
2023/02/24 00:15:40;;;;;;;35.10;28.33;;;;;20.70;100333.00;;;;2049015;28;20232;-81
2023/02/24 00:16:41;;;;;;;34.37;26.57;;;;;20.70;100334.00;;;;2055819;28;20255;-80
2023/02/24 00:17:43;;;;;;;34.47;26.13;;;;;20.60;100335.00;;;;2056064;28;20211;-80
2023/02/24 00:18:44;;;;;;;33.92;25.60;;;;;20.60;100292.00;;;;2055891;28;20244;-80
2023/02/24 00:19:45;;;;;;;30.83;25.30;;;;;20.60;100332.00;;;;2055473;28;20258;-80
2023/02/24 00:20:45;;;;;;;30.83;25.05;;;;;20.60;100332.00;;;;2055375;28;20212;-81
2023/02/24 00:21:46;;;;;;;33.23;25.80;;;;;20.60;100330.00;;;;2056060;28;20246;-80
2023/02/24 00:22:46;;;;;;;29.27;24.00;;;;;20.60;100335.00;;;;2056228;28;20220;-81
2023/02/24 00:23:47;;;;;;;32.27;23.57;;;;;20.60;100330.00;;;;2056082;28;20216;-80
2023/02/24 00:24:47;;;;;;;27.37;21.23;;;;;20.60;100331.00;;;;2055919;28;20234;-81
2023/02/24 00:25:47;;;;;;;27.87;22.07;;;;;20.60;100331.00;;;;2055616;28;20706;-80
2023/02/24 00:26:55;;;;;;;28.30;21.20;;;;;20.60;100330.00;;;;2055268;28;20282;-80
2023/02/24 00:28:00;;;;;;;28.40;21.83;;;;;20.60;100323.00;;;;2055932;28;20219;-80
2023/02/24 00:29:03;;;;;;;27.65;20.98;;;;;20.60;100321.00;;;;2055813;28;20220;-80
2023/02/24 00:30:05;;;;;;;28.35;20.92;;;;;20.60;100315.00;;;;2055941;28;20292;-79
2023/02/24 00:31:07;;;;;;;26.00;18.13;;;;;20.60;100314.00;;;;2056117;28;20223;-81
2023/02/24 00:32:11;;;;;;;27.42;21.00;;;;;20.60;100312.00;;;;2055954;28;20266;-81
2023/02/24 00:33:11;;;;;;;27.00;18.73;;;;;20.60;100314.00;;;;2056110;28;20286;-80
2023/02/24 00:34:11;;;;;;;26.30;19.77;;;;;20.60;100307.00;;;;2055948;28;20219;-80
2023/02/24 00:35:12;;;;;;;24.00;18.83;;;;;20.60;100309.00;;;;2055937;28;20242;-80
2023/02/24 00:36:13;;;;;;;22.80;17.77;;;;;20.60;100307.00;;;;2056039;28;20212;-80
2023/02/24 00:37:14;;;;;;;25.42;20.50;;;;;20.60;100301.00;;;;2056054;28;20208;-81
2023/02/24 00:38:14;;;;;;;23.37;18.47;;;;;20.50;100302.00;;;;2055650;28;20231;-80
2023/02/24 00:39:14;;;;;;;27.67;17.90;;;;;20.50;100304.00;;;;2055222;28;21002;-80
2023/02/24 00:40:15;;;;;;;25.53;18.40;;;;;20.50;100301.00;;;;2055922;28;20211;-80
2023/02/24 00:41:17;;;;;;;22.73;18.75;;;;;20.60;100301.00;;;;2056156;28;20235;-79
2023/02/24 00:42:17;;;;;;;22.05;17.58;;;;;20.50;100298.00;;;;2055925;28;20216;-80
2023/02/24 00:43:17;;;;;;;22.80;17.67;;;;;20.50;100305.00;;;;2056066;28;20226;-79
2023/02/24 00:44:18;;;;;;;24.60;18.30;;;;;20.60;100298.00;;;;2056083;28;20254;-79
2023/02/24 00:45:18;;;;;;;23.10;17.60;;;;;20.50;100303.00;;;;2055951;28;20239;-80
2023/02/24 00:46:19;;;;;;;21.93;16.53;;;;;20.50;100291.00;;;;2055978;28;20219;-80
2023/02/24 00:47:21;;;;;;;23.15;17.10;;;;;20.50;100299.00;;;;2055297;28;20314;-79
2023/02/24 00:48:27;;;;;;;23.73;17.20;;;;;20.50;100293.00;;;;2055069;28;20220;-80
2023/02/24 00:49:28;;;;;;;20.50;15.20;;;;;20.50;100299.00;;;;2055992;28;20829;-80
2023/02/24 00:50:28;;;;;;;18.67;14.97;;;;;20.50;100288.00;;;;2055979;28;20223;-80
2023/02/24 00:51:29;;;;;;;20.53;15.37;;;;;20.50;100292.00;;;;2055791;28;20220;-80
2023/02/24 00:52:30;;;;;;;23.15;15.98;;;;;20.50;100294.00;;;;2055701;28;20219;-80
2023/02/24 00:53:30;;;;;;;20.67;15.07;;;;;20.50;100290.00;;;;2055923;28;20803;-80
2023/02/24 00:54:34;;;;;;;19.90;15.27;;;;;20.50;100284.00;;;;2054421;28;20904;-80
2023/02/24 00:55:36;;;;;;;20.15;14.20;;;;;20.50;100292.00;;;;2055029;28;20242;-78
2023/02/24 00:56:36;;;;;;;21.33;15.10;;;;;20.50;100292.00;;;;2055685;28;20216;-79
2023/02/24 00:57:38;;;;;;;19.50;13.90;;;;;20.50;100292.00;;;;2065373;28;20210;-79
2023/02/24 00:58:38;;;;;;;19.63;14.57;;;;;20.50;100289.00;;;;2069491;28;20233;-79
2023/02/24 00:59:39;;;;;;;19.37;15.57;;;;;20.50;100284.00;;;;2069331;28;20360;-79
2023/02/24 01:00:42;;;;;;;18.07;14.73;;;;;20.50;100284.00;;;;2063575;28;20219;-79
2023/02/24 01:01:43;;;;;;;18.23;13.88;;;;;20.50;100254.00;;;;2069123;28;20229;-79
2023/02/24 01:02:45;;;;;;;18.98;14.38;;;;;20.50;100282.00;;;;2071403;28;20694;-79
2023/02/24 01:03:47;;;;;;;19.83;14.38;;;;;20.50;100283.00;;;;2071221;28;20221;-80
2023/02/24 01:04:49;;;;;;;18.40;13.50;;;;;20.50;100284.00;;;;2072122;28;20603;-80
2023/02/24 01:05:50;;;;;;;17.30;12.98;;;;;20.50;100286.00;;;;2067312;28;20240;-80
2023/02/24 01:06:51;;;;;;;16.80;12.97;;;;;20.40;100284.00;;;;2063361;28;20215;-80
2023/02/24 01:07:51;;;;;;;17.33;12.43;;;;;20.50;100288.00;;;;2063609;28;20269;-80
2023/02/24 01:08:52;;;;;;;18.90;12.27;;;;;20.40;100288.00;;;;2063599;28;20636;-78
2023/02/24 01:09:53;;;;;;;16.40;12.50;;;;;20.40;100280.00;;;;2064061;28;20225;-80
2023/02/24 01:13:21;;;;;;;18.20;12.82;;;;;20.50;100283.00;;;;2063224;28;20219;-79
2023/02/24 01:14:23;;;;;;;16.20;11.43;;;;;20.40;100288.00;;;;2068196;28;20633;-80
2023/02/24 01:15:24;;;;;;;14.25;11.10;;;;;20.40;100279.00;;;;2071214;28;20214;-79
2023/02/24 01:16:24;;;;;;;15.50;11.00;;;;;20.40;100283.00;;;;2071256;28;20210;-79
2023/02/24 01:17:25;;;;;;;14.40;11.33;;;;;20.40;100273.00;;;;2071105;28;20574;-79
2023/02/24 01:18:25;;;;;;;14.27;9.90;;;;;20.40;100293.00;;;;2071509;28;20561;-80
2023/02/24 01:19:30;;;;;;;15.97;11.57;;;;;20.40;100270.00;;;;2071622;28;20582;-79
2023/02/24 01:20:31;;;;;;;16.48;11.18;;;;;20.40;100275.00;;;;2071815;28;20300;-79
2023/02/24 01:21:32;;;;;;;12.95;10.13;;;;;20.40;100279.00;;;;2071856;28;20217;-79
2023/02/24 01:22:33;;;;;;;15.97;10.87;;;;;20.40;100274.00;;;;2071611;28;20231;-79
2023/02/24 01:23:33;;;;;;;15.17;10.70;;;;;20.40;100266.00;;;;2071794;28;20214;-78
2023/02/24 01:24:35;;;;;;;13.30;9.77;;;;;20.40;100270.00;;;;2071570;28;20674;-79
2023/02/24 01:25:35;;;;;;;14.43;10.30;;;;;20.40;100263.00;;;;2071710;28;20215;-79
2023/02/24 01:26:36;;;;;;;13.53;10.40;;;;;20.40;100263.00;;;;2071768;28;20218;-79
2023/02/24 01:27:36;;;;;;;12.93;9.77;;;;;20.40;100270.00;;;;2071689;28;20218;-79
2023/02/24 01:28:36;;;;;;;12.00;10.23;;;;;20.40;100273.00;;;;2070605;28;20228;-80
2023/02/24 01:29:38;;;;;;;11.97;9.67;;;;;20.30;100267.00;;;;2070813;28;20218;-80
2023/02/24 01:30:39;;;;;;;12.50;9.30;;;;;20.40;100267.00;;;;2071379;28;20218;-77
2023/02/24 01:31:41;;;;;;;12.35;9.25;;;;;20.40;100264.00;;;;2064903;28;20218;-78
2023/02/24 01:32:42;;;;;;;14.77;9.70;;;;;20.40;100263.00;;;;2063585;28;20223;-78
2023/02/24 01:33:44;;;;;;;13.27;9.03;;;;;20.40;100265.00;;;;2063500;28;20262;-78
2023/02/24 01:34:45;;;;;;;15.38;9.75;;;;;20.30;100264.00;;;;2063621;28;20210;-78
2023/02/24 01:35:45;;;;;;;10.90;8.63;;;;;20.40;100249.00;;;;2063501;28;20207;-79
2023/02/24 01:36:46;;;;;;;13.40;8.50;;;;;20.40;100257.00;;;;2063605;28;20238;-78
2023/02/24 01:37:46;;;;;;;13.40;9.63;;;;;20.40;100265.00;;;;2063595;28;20215;-79
2023/02/24 01:38:48;;;;;;;13.93;9.23;;;;;20.30;100261.00;;;;2063376;28;20262;-78
2023/02/24 01:39:48;;;;;;;14.88;9.07;;;;;20.30;100249.00;;;;2063470;28;20699;-79
2023/02/24 01:40:56;;;;;;;12.70;7.83;;;;;20.40;100261.00;;;;2063590;28;20219;-80
2023/02/24 01:42:00;;;;;;;13.77;8.65;;;;;20.40;100258.00;;;;2063443;28;20262;-80
2023/02/24 01:43:00;;;;;;;10.57;7.60;;;;;20.30;100257.00;;;;2063560;28;20230;-78
2023/02/24 01:44:13;;;;;;;12.80;8.93;;;;;20.30;100264.00;;;;2063607;28;20300;-79
2023/02/24 01:45:16;;;;;;;10.93;8.63;;;;;20.30;100266.00;;;;2063355;28;20214;-78
2023/02/24 01:46:16;;;;;;;12.70;8.07;;;;;20.30;100254.00;;;;2053372;28;20210;-78
2023/02/24 01:47:19;;;;;;;11.60;8.00;;;;;20.30;100234.00;;;;2070248;28;20218;-78
2023/02/24 01:48:20;;;;;;;10.65;8.00;;;;;20.30;100256.00;;;;2062571;28;20996;-79
2023/02/24 01:49:33;;;;;;;11.38;7.82;;;;;20.30;100254.00;;;;2062726;28;20225;-78
2023/02/24 01:50:34;;;;;;;11.07;7.85;;;;;20.30;100250.00;;;;2062783;28;20215;-79
2023/02/24 01:51:52;;;;;;;13.68;8.32;;;;;20.30;100252.00;;;;2062698;28;20622;-79
2023/02/24 01:52:57;;;;;;;11.50;6.90;;;;;20.30;100256.00;;;;2062667;28;20269;-79
2023/02/24 01:53:57;;;;;;;12.07;8.32;;;;;20.30;100245.00;;;;2062764;28;20207;-79
2023/02/24 01:55:06;;;;;;;11.57;7.60;;;;;20.30;100249.00;;;;2062792;28;20222;-78
2023/02/24 01:56:06;;;;;;;10.57;7.20;;;;;20.30;100254.00;;;;2055938;28;20215;-78
2023/02/24 01:57:08;;;;;;;11.93;7.50;;;;;20.30;100247.00;;;;2062499;28;20234;-78
2023/02/24 01:58:12;;;;;;;12.07;7.40;;;;;20.30;100245.00;;;;2062490;28;20214;-80
2023/02/24 01:59:14;;;;;;;10.50;6.80;;;;;20.30;100248.00;;;;2062293;28;20215;-74
2023/02/24 02:00:30;;;;;;;11.50;7.10;;;;;20.30;100223.00;;;;2062213;28;20209;-79
2023/02/24 02:01:39;;;;;;;11.27;6.97;;;;;20.30;100246.00;;;;2062731;28;20210;-80
2023/02/24 02:02:42;;;;;;;10.20;7.00;;;;;20.20;100235.00;;;;2062648;28;20230;-80
2023/02/24 02:03:42;;;;;;;8.63;6.43;;;;;20.30;100219.00;;;;2063444;28;20257;-79
2023/02/24 02:04:50;;;;;;;9.90;6.80;;;;;20.30;100238.00;;;;2062314;28;20214;-79
2023/02/24 02:05:52;;;;;;;11.55;6.90;;;;;20.30;100237.00;;;;2065963;28;20289;-79
2023/02/24 02:06:52;;;;;;;11.35;6.88;;;;;20.20;100237.00;;;;2062690;28;20230;-79
2023/02/24 02:07:53;;;;;;;11.00;6.67;;;;;20.20;100219.00;;;;2070580;28;20234;-80
2023/02/24 02:08:53;;;;;;;9.47;6.63;;;;;20.20;100227.00;;;;2070671;28;20213;-78
2023/02/24 02:09:53;;;;;;;10.60;6.70;;;;;20.20;100239.00;;;;2070865;28;20210;-79
2023/02/24 02:10:57;;;;;;;11.23;6.47;;;;;20.20;100230.00;;;;2069712;28;20244;-80
2023/02/24 02:11:57;;;;;;;13.18;7.28;;;;;20.30;100231.00;;;;2069977;28;20220;-79
2023/02/24 02:12:58;;;;;;;10.13;7.67;;;;;20.20;100220.00;;;;2069974;28;20218;-79
2023/02/24 02:13:59;;;;;;;8.67;6.50;;;;;20.20;100213.00;;;;2061691;28;20242;-79
2023/02/24 02:14:59;;;;;;;10.20;6.67;;;;;20.20;100210.00;;;;2061729;28;20238;-80
2023/02/24 02:16:28;;;;;;;8.43;5.70;;;;;20.20;100206.00;;;;2070992;28;20480;-80
2023/02/24 02:17:53;;;;;;;11.18;6.20;;;;;20.20;100205.00;;;;2070664;28;20218;-79
2023/02/24 02:19:03;;;;;;;9.30;6.20;;;;;20.20;100203.00;;;;2069926;28;20222;-79
2023/02/24 02:20:15;;;;;;;9.10;5.90;;;;;20.20;100202.00;;;;2070351;28;20214;-79
2023/02/24 02:21:38;;;;;;;11.32;5.90;;;;;20.20;100201.00;;;;2070846;28;20614;-79
2023/02/24 02:22:51;;;;;;;11.60;6.75;;;;;20.20;100180.00;;;;2070766;28;20237;-80
2023/02/24 02:24:03;;;;;;;9.77;6.05;;;;;20.20;100195.00;;;;2068909;28;20214;-79
2023/02/24 02:25:15;;;;;;;12.52;6.40;;;;;20.20;100189.00;;;;2069704;28;20309;-80
2023/02/24 02:26:32;;;;;;;8.80;5.50;;;;;20.20;100203.00;;;;2063032;28;20230;-79
2023/02/24 02:27:40;;;;;;;9.20;5.47;;;;;20.20;100186.00;;;;2069589;28;20336;-79
2023/02/24 02:28:59;;;;;;;8.18;5.38;;;;;20.20;100189.00;;;;2068723;28;20225;-80
2023/02/24 02:30:22;;;;;;;9.40;5.63;;;;;20.20;100184.00;;;;2065626;28;20214;-80
2023/02/24 02:31:27;;;;;;;9.25;6.32;;;;;20.20;100178.00;;;;2070094;28;20214;-80
2023/02/24 02:32:52;;;;;;;8.55;5.25;;;;;20.20;100182.00;;;;2070459;28;20293;-80
2023/02/24 02:34:07;;;;;;;11.68;5.65;;;;;20.20;100183.00;;;;2070953;28;20210;-79
2023/02/24 02:35:45;;;;;;;9.13;5.80;;;;;20.20;100175.00;;;;2071144;28;20809;-80
2023/02/24 02:36:59;;;;;;;8.73;5.60;;;;;20.20;100177.00;;;;2061638;28;20660;-80
2023/02/24 02:38:14;;;;;;;8.82;5.80;;;;;20.20;100166.00;;;;2061353;28;20214;-79
2023/02/24 02:39:43;;;;;;;8.80;5.45;;;;;20.10;100168.00;;;;2054736;28;20241;-78
2023/02/24 02:40:51;;;;;;;8.07;5.50;;;;;20.20;100149.00;;;;2067430;28;20583;-79
2023/02/24 02:41:54;;;;;;;9.35;5.68;;;;;20.20;100145.00;;;;2070097;28;20273;-79
2023/02/24 02:42:57;;;;;;;8.50;4.80;;;;;20.10;100146.00;;;;2062199;28;20215;-79
2023/02/24 02:44:23;;;;;;;7.88;4.63;;;;;20.10;100169.00;;;;2062673;28;20697;-79
2023/02/24 02:45:33;;;;;;;9.95;5.53;;;;;20.10;100154.00;;;;2064436;28;20253;-79
2023/02/24 02:46:52;;;;;;;10.73;4.93;;;;;20.10;100159.00;;;;2063544;28;20265;-79
2023/02/24 02:47:57;;;;;;;9.88;5.25;;;;;20.10;100158.00;;;;2069953;28;20217;-78
2023/02/24 02:48:58;;;;;;;9.35;5.32;;;;;20.10;100159.00;;;;2069657;28;20213;-80
2023/02/24 02:50:17;;;;;;;7.13;5.00;;;;;20.10;100151.00;;;;2070711;28;20751;-79
2023/02/24 02:51:20;;;;;;;8.45;5.15;;;;;20.10;100144.00;;;;2070435;28;20448;-80
2023/02/24 02:52:32;;;;;;;6.30;4.50;;;;;20.10;100147.00;;;;2070422;28;20641;-79
2023/02/24 02:53:50;;;;;;;9.23;5.15;;;;;20.10;100155.00;;;;2068544;28;20294;-80
2023/02/24 02:54:56;;;;;;;9.57;5.40;;;;;20.10;100130.00;;;;2060134;28;20215;-79
2023/02/24 02:55:59;;;;;;;7.68;4.55;;;;;20.10;100141.00;;;;2057068;28;20301;-79
2023/02/24 02:57:11;;;;;;;8.32;4.30;;;;;20.10;100125.00;;;;2055132;28;20216;-80
2023/02/24 02:58:17;;;;;;;6.40;4.72;;;;;20.10;100146.00;;;;2055650;28;20924;-80
2023/02/24 02:59:22;;;;;;;6.88;4.25;;;;;20.10;100144.00;;;;2057661;28;20305;-79
2023/02/24 03:00:28;;;;;;;8.95;4.80;;;;;20.10;100147.00;;;;2056362;28;20710;-71
2023/02/24 03:01:30;;;;;;;6.13;4.20;;;;;20.10;100117.00;;;;2058202;28;20300;-78
2023/02/24 03:02:37;;;;;;;11.25;4.90;;;;;20.10;100139.00;;;;2056040;28;20274;-79
2023/02/24 03:03:39;;;;;;;8.18;4.75;;;;;20.00;100134.00;;;;2064937;28;20582;-80
2023/02/24 03:04:41;;;;;;;8.27;4.35;;;;;20.10;100139.00;;;;2072732;28;20293;-79
2023/02/24 03:05:45;;;;;;;8.27;4.60;;;;;20.00;100140.00;;;;2066137;28;20199;-79
2023/02/24 03:06:47;;;;;;;7.32;4.28;;;;;20.00;100115.00;;;;2056345;28;20211;-80
2023/02/24 03:07:50;;;;;;;6.78;4.45;;;;;20.00;100128.00;;;;2055819;28;20224;-79
2023/02/24 03:08:59;;;;;;;6.55;4.47;;;;;20.00;100152.00;;;;2032563;29;20249;-80
2023/02/24 03:10:09;;;;;;;6.53;3.83;;;;;20.00;100130.00;;;;2035578;28;20222;-79
2023/02/24 03:11:11;;;;;;;8.73;4.65;;;;;20.00;100133.00;;;;2050646;28;20212;-79
2023/02/24 03:12:13;;;;;;;7.05;4.10;;;;;20.00;100133.00;;;;2056517;28;20667;-80
2023/02/24 03:13:15;;;;;;;6.43;4.13;;;;;20.00;100133.00;;;;2055931;28;20703;-80
2023/02/24 03:14:15;;;;;;;7.55;3.90;;;;;20.00;100138.00;;;;2064035;28;20222;-79
2023/02/24 03:15:16;;;;;;;7.73;4.63;;;;;20.00;100132.00;;;;2063982;28;20222;-79
2023/02/24 03:16:16;;;;;;;7.47;4.00;;;;;20.00;100138.00;;;;2063845;28;20217;-80
2023/02/24 03:17:23;;;;;;;10.00;5.03;;;;;20.10;100128.00;;;;2064014;28;20297;-79
2023/02/24 03:18:27;;;;;;;7.47;4.22;;;;;20.00;100103.00;;;;2063616;28;20218;-80
2023/02/24 03:19:31;;;;;;;7.00;4.00;;;;;20.00;100114.00;;;;2063327;28;20222;-80
2023/02/24 03:20:51;;;;;;;9.30;4.03;;;;;20.00;100105.00;;;;2063836;28;20217;-78
2023/02/24 03:21:58;;;;;;;6.78;3.45;;;;;20.00;100099.00;;;;2061221;28;20242;-79
2023/02/24 03:23:01;;;;;;;6.95;3.65;;;;;20.00;100126.00;;;;2056260;28;20242;-79
2023/02/24 03:24:04;;;;;;;6.95;3.90;;;;;20.00;100134.00;;;;2056127;28;20595;-79
2023/02/24 03:25:05;;;;;;;8.30;4.45;;;;;20.00;100130.00;;;;2055920;28;20216;-79
2023/02/24 03:26:20;;;;;;;7.43;4.23;;;;;20.00;100129.00;;;;2048485;28;20212;-79
2023/02/24 03:27:36;;;;;;;7.80;3.70;;;;;20.00;100129.00;;;;2057707;28;20258;-80
2023/02/24 03:28:39;;;;;;;8.55;4.05;;;;;20.00;100121.00;;;;2058307;28;20227;-79
2023/02/24 03:29:47;;;;;;;7.90;3.78;;;;;20.00;100125.00;;;;2063744;28;20234;-80
2023/02/24 03:30:57;;;;;;;7.53;4.22;;;;;20.00;100108.00;;;;2063614;28;20792;-78
2023/02/24 03:32:06;;;;;;;5.38;3.50;;;;;20.00;100127.00;;;;2063675;28;20226;-77
2023/02/24 03:33:15;;;;;;;7.95;3.90;;;;;20.00;100125.00;;;;2063217;28;20211;-79
2023/02/24 03:34:19;;;;;;;6.28;3.50;;;;;20.00;100142.00;;;;2063733;28;20240;-79
2023/02/24 03:35:28;;;;;;;6.95;3.97;;;;;20.00;100127.00;;;;2062910;28;20222;-79
2023/02/24 03:36:28;;;;;;;5.93;3.72;;;;;20.00;100114.00;;;;2056810;28;20220;-78
2023/02/24 03:37:29;;;;;;;10.47;4.47;;;;;20.00;100116.00;;;;2063955;28;20218;-78
2023/02/24 03:38:29;;;;;;;7.83;3.77;;;;;19.90;100112.00;;;;2063786;28;20218;-77
2023/02/24 03:39:31;;;;;;;9.23;3.87;;;;;20.00;100116.00;;;;2063654;28;20215;-78
2023/02/24 03:40:34;;;;;;;6.00;3.33;;;;;19.90;100115.00;;;;2063615;28;20211;-78
2023/02/24 03:41:39;;;;;;;7.72;3.58;;;;;20.00;100092.00;;;;2062172;28;20211;-78
2023/02/24 03:42:42;;;;;;;6.78;3.15;;;;;19.90;100102.00;;;;2063470;28;20262;-79
2023/02/24 03:43:44;;;;;;;9.05;3.50;;;;;19.90;100081.00;;;;2063028;28;20219;-79
2023/02/24 03:44:44;;;;;;;7.50;3.58;;;;;19.90;100111.00;;;;2055897;28;20220;-78
2023/02/24 03:45:45;;;;;;;6.73;3.30;;;;;19.90;100110.00;;;;2063698;28;20589;-79
2023/02/24 03:46:46;;;;;;;6.68;3.45;;;;;19.90;100094.00;;;;2064561;28;20211;-79
2023/02/24 03:47:46;;;;;;;7.00;3.33;;;;;20.00;100106.00;;;;2063730;28;20312;-79
2023/02/24 03:48:52;;;;;;;4.80;3.00;;;;;19.90;100098.00;;;;2063491;28;20230;-78
2023/02/24 03:49:52;;;;;;;5.68;3.60;;;;;19.90;100096.00;;;;2055691;28;20723;-78
2023/02/24 03:50:52;;;;;;;8.17;3.73;;;;;19.90;100104.00;;;;2055273;28;20224;-78
2023/02/24 03:52:27;;;;;;;7.20;3.67;;;;;19.90;100097.00;;;;2063615;28;20222;-79
2023/02/24 03:53:53;;;;;;;7.25;3.28;;;;;19.90;100089.00;;;;2057388;28;20297;-79
2023/02/24 03:55:20;;;;;;;8.40;4.07;;;;;19.90;100097.00;;;;2062551;28;20638;-78
2023/02/24 03:56:39;;;;;;;6.35;2.90;;;;;19.90;100090.00;;;;2058377;28;20219;-78
2023/02/24 03:57:53;;;;;;;5.05;3.20;;;;;19.90;100090.00;;;;2063315;28;20589;-79
2023/02/24 03:59:17;;;;;;;8.02;4.07;;;;;19.90;100078.00;;;;2063942;28;20218;-78
2023/02/24 04:00:21;;;;;;;6.38;3.33;;;;;19.90;100100.00;;;;2063141;28;20235;-79
2023/02/24 04:01:44;;;;;;;6.72;3.20;;;;;19.80;100096.00;;;;2055239;28;20310;-79
2023/02/24 04:02:44;;;;;;;6.60;3.08;;;;;19.90;100096.00;;;;2053833;28;20274;-79
2023/02/24 04:03:50;;;;;;;6.00;3.10;;;;;19.90;100106.00;;;;2055185;28;20239;-78
2023/02/24 04:05:19;;;;;;;6.88;3.08;;;;;19.90;100102.00;;;;2063365;28;20306;-78
2023/02/24 04:06:44;;;;;;;4.82;2.60;;;;;19.90;100089.00;;;;2053881;28;20629;-78
2023/02/24 04:07:54;;;;;;;5.85;3.35;;;;;19.90;100099.00;;;;2042363;28;20279;-79
2023/02/24 04:09:18;;;;;;;5.70;2.97;;;;;19.90;100069.00;;;;2042728;28;20220;-78
2023/02/24 04:10:32;;;;;;;7.70;3.35;;;;;19.90;100084.00;;;;2049272;28;20646;-79
2023/02/24 04:12:25;;;;;;;7.10;3.40;;;;;19.90;100084.00;;;;2054384;28;20210;-76
2023/02/24 04:13:34;;;;;;;6.07;2.70;;;;;19.90;100083.00;;;;2051118;28;20262;-79
2023/02/24 04:14:49;;;;;;;6.55;3.20;;;;;19.90;100083.00;;;;2055835;28;20220;-77
2023/02/24 04:15:57;;;;;;;5.95;2.83;;;;;19.80;100084.00;;;;2055623;28;20280;-79
2023/02/24 04:17:19;;;;;;;6.22;3.42;;;;;19.80;100084.00;;;;2056732;28;20212;-78
2023/02/24 04:18:21;;;;;;;6.55;2.50;;;;;19.80;100077.00;;;;2059949;28;20590;-79
2023/02/24 04:19:23;;;;;;;5.18;2.80;;;;;19.80;100076.00;;;;2055261;28;20223;-78
2023/02/24 04:20:26;;;;;;;5.03;3.10;;;;;19.80;100065.00;;;;2055592;28;20219;-78
2023/02/24 04:21:27;;;;;;;6.30;3.00;;;;;19.80;100076.00;;;;2055368;28;20207;-78
2023/02/24 04:22:28;;;;;;;6.57;2.90;;;;;19.90;100081.00;;;;2047427;28;20225;-79
2023/02/24 04:23:32;;;;;;;7.17;3.27;;;;;19.80;100065.00;;;;2055337;28;20236;-79
2023/02/24 04:24:33;;;;;;;5.40;2.92;;;;;19.80;100083.00;;;;2047440;28;20715;-79
2023/02/24 04:25:33;;;;;;;3.57;2.30;;;;;19.80;100082.00;;;;2031922;29;20228;-79
2023/02/24 04:26:33;;;;;;;6.20;3.00;;;;;19.80;100077.00;;;;2047607;28;20220;-79
2023/02/24 04:27:34;;;;;;;6.27;2.83;;;;;19.80;100051.00;;;;2055380;28;20219;-79
2023/02/24 04:28:35;;;;;;;5.20;2.90;;;;;19.80;100080.00;;;;2055221;28;20223;-79
2023/02/24 04:29:39;;;;;;;5.27;2.67;;;;;19.80;100077.00;;;;2061358;28;21605;-74
2023/02/24 04:30:42;;;;;;;5.45;2.65;;;;;19.80;100074.00;;;;2047765;28;20499;-78
2023/02/24 04:31:45;;;;;;;4.57;2.53;;;;;19.70;100078.00;;;;2055711;28;20923;-78
2023/02/24 04:32:45;;;;;;;4.70;2.22;;;;;19.80;100073.00;;;;2054859;28;20266;-79
2023/02/24 04:33:52;;;;;;;5.73;2.70;;;;;19.80;100074.00;;;;2038978;28;20241;-79
2023/02/24 04:34:53;;;;;;;6.15;2.67;;;;;19.80;100075.00;;;;2055190;28;20703;-78
2023/02/24 04:35:53;;;;;;;5.63;2.58;;;;;19.80;100065.00;;;;2055329;28;20707;-78
2023/02/24 04:36:54;;;;;;;4.10;2.00;;;;;19.80;100070.00;;;;2055829;28;20215;-79
2023/02/24 04:37:54;;;;;;;5.77;2.80;;;;;19.80;100073.00;;;;2055771;28;20239;-79
2023/02/24 04:38:55;;;;;;;5.83;2.53;;;;;19.80;100069.00;;;;2055929;28;20307;-78
2023/02/24 04:39:55;;;;;;;5.33;2.73;;;;;19.80;100069.00;;;;2056072;28;20262;-79
2023/02/24 05:02:19;;;;;;;7.47;2.72;;;;;19.70;100049.00;;;;2052883;28;20223;-79
2023/02/24 05:03:21;;;;;;;3.88;2.28;;;;;19.70;100053.00;;;;2061765;28;20214;-78
2023/02/24 05:04:21;;;;;;;4.28;2.20;;;;;19.70;100047.00;;;;2063717;28;20214;-78
2023/02/24 05:05:32;;;;;;;3.90;2.20;;;;;19.70;100049.00;;;;2066582;28;20236;-78
2023/02/24 05:06:32;;;;;;;6.93;2.55;;;;;19.70;100049.00;;;;2071964;28;20449;-78
2023/02/24 05:07:32;;;;;;;7.17;2.70;;;;;19.70;100047.00;;;;2071786;28;20213;-79
2023/02/24 05:08:33;;;;;;;4.30;1.97;;;;;19.70;100049.00;;;;2071455;28;20256;-79
2023/02/24 05:09:33;;;;;;;6.10;2.20;;;;;19.70;100048.00;;;;2071568;28;20625;-77
2023/02/24 05:10:39;;;;;;;5.00;2.13;;;;;19.70;100036.00;;;;2071773;28;20210;-78
2023/02/24 05:11:41;;;;;;;4.28;2.20;;;;;19.70;100045.00;;;;2070801;28;20215;-78
2023/02/24 05:12:41;;;;;;;4.93;2.22;;;;;19.70;100037.00;;;;2070927;28;20222;-71
2023/02/24 05:13:44;;;;;;;3.90;2.20;;;;;19.70;100034.00;;;;2071827;28;20647;-76
2023/02/24 05:14:48;;;;;;;4.03;2.00;;;;;19.70;100037.00;;;;2071587;28;20655;-77
2023/02/24 05:15:48;;;;;;;4.03;1.98;;;;;19.70;100038.00;;;;2071951;28;20603;-78
2023/02/24 05:16:49;;;;;;;5.77;2.60;;;;;19.70;100038.00;;;;2071827;28;20214;-78
2023/02/24 05:17:51;;;;;;;4.43;2.03;;;;;19.70;100042.00;;;;2071680;28;20689;-78
2023/02/24 05:19:28;;;;;;;5.03;2.42;;;;;19.70;100043.00;;;;2071582;28;20285;-79
2023/02/24 05:21:34;;;;;;;4.95;2.20;;;;;19.60;100023.00;;;;2070684;28;21012;-78
2023/02/24 05:22:34;;;;;;;3.88;2.28;;;;;19.70;100027.00;;;;2070410;28;20305;-79
2023/02/24 05:23:38;;;;;;;5.80;2.40;;;;;19.70;100015.00;;;;2071788;28;20858;-78
2023/02/24 05:24:39;;;;;;;4.85;2.47;;;;;19.70;100022.00;;;;2070882;28;20222;-78
2023/02/24 05:25:41;;;;;;;4.25;2.20;;;;;19.70;100028.00;;;;2071096;28;20740;-79
2023/02/24 05:26:42;;;;;;;6.13;2.00;;;;;19.70;100024.00;;;;2071767;28;20250;-78
2023/02/24 05:27:42;;;;;;;5.70;2.30;;;;;19.70;99999.00;;;;2071650;28;20222;-79
2023/02/24 05:28:45;;;;;;;6.00;1.97;;;;;19.70;100013.00;;;;2070739;28;20331;-78
2023/02/24 05:29:46;;;;;;;3.90;2.00;;;;;19.70;100018.00;;;;2066426;28;20218;-77
2023/02/24 05:30:46;;;;;;;4.80;2.30;;;;;19.70;100011.00;;;;2070933;28;20218;-77
2023/02/24 05:31:46;;;;;;;6.00;2.20;;;;;19.70;100013.00;;;;2071829;28;20218;-77
2023/02/24 05:32:47;;;;;;;5.80;2.33;;;;;19.70;100012.00;;;;2070909;28;20214;-78
2023/02/24 05:33:48;;;;;;;3.90;2.00;;;;;19.60;100011.00;;;;2071067;28;20226;-78
2023/02/24 05:34:48;;;;;;;4.55;2.00;;;;;19.60;100018.00;;;;2071744;28;20202;-78
2023/02/24 05:35:49;;;;;;;4.17;2.70;;;;;19.60;100013.00;;;;2071536;28;20297;-77
2023/02/24 05:36:50;;;;;;;3.80;1.90;;;;;19.60;100000.00;;;;2071396;28;20625;-77
2023/02/24 05:37:50;;;;;;;5.23;2.67;;;;;19.60;100003.00;;;;2070706;28;20457;-79
2023/02/24 05:38:56;;;;;;;3.67;1.80;;;;;19.60;100009.00;;;;2070807;28;20241;-78
2023/02/24 05:39:59;;;;;;;4.35;2.25;;;;;19.60;100004.00;;;;2071779;28;20364;-79
2023/02/24 05:41:15;;;;;;;4.57;2.10;;;;;19.70;100002.00;;;;2063060;28;20211;-78
2023/02/24 05:42:16;;;;;;;4.78;2.03;;;;;19.70;99998.00;;;;2070943;28;20586;-78
2023/02/24 05:43:17;;;;;;;5.13;2.10;;;;;19.70;99996.00;;;;2071026;28;20221;-79
2023/02/24 05:44:22;;;;;;;5.38;2.30;;;;;19.70;99995.00;;;;2071213;28;20225;-77